Time;durP1;ratioP1;P1;durP2;ratioP2;P2;SDS_P1;SDS_P2;PMS_P1;PMS_P2;Temp;Humidity;BMP_temperature;BMP_pressure;BME280_temperature;BME280_humidity;BME280_pressure;Samples;Min_cycle;Max_cycle;Signal;HPM_P1;HPM_P2
2022/08/30 00:01:23;;;;;;;5.55;3.97;;;14.40;99.90;;;;;;5111931;28;20054;-63
2022/08/30 00:03:50;;;;;;;6.28;4.22;;;14.40;99.90;;;;;;5111756;28;20101;-63
2022/08/30 00:06:19;;;;;;;5.88;3.90;;;14.30;99.90;;;;;;5112645;28;20136;-62
2022/08/30 00:08:48;;;;;;;7.82;4.15;;;14.30;99.90;;;;;;5113529;28;22071;-63
2022/08/30 00:11:18;;;;;;;7.32;4.13;;;14.30;99.90;;;;;;5128617;27;20067;-63
2022/08/30 00:13:48;;;;;;;5.83;4.20;;;14.30;99.90;;;;;;5134450;27;20051;-62
2022/08/30 00:16:16;;;;;;;5.32;3.63;;;14.30;99.90;;;;;;5137112;27;20491;-63
2022/08/30 00:18:43;;;;;;;5.43;3.53;;;14.30;99.90;;;;;;5136069;27;20096;-62
2022/08/30 00:21:10;;;;;;;9.52;4.05;;;14.20;99.90;;;;;;5135211;27;20100;-63
2022/08/30 00:23:38;;;;;;;5.22;3.50;;;14.20;99.90;;;;;;5117854;27;20495;-63
2022/08/30 00:26:06;;;;;;;6.82;3.78;;;14.20;99.90;;;;;;5116891;28;20407;-62
2022/08/30 00:28:33;;;;;;;6.70;3.75;;;14.10;99.90;;;;;;5116171;28;20052;-63
2022/08/30 00:31:02;;;;;;;5.55;3.67;;;14.10;99.90;;;;;;5115460;28;20047;-63
2022/08/30 00:33:29;;;;;;;4.40;3.58;;;14.10;99.90;;;;;;5132391;27;20051;-62
2022/08/30 00:35:56;;;;;;;5.18;3.75;;;14.10;99.90;;;;;;5135418;27;20542;-63
2022/08/30 00:38:23;;;;;;;4.63;3.40;;;14.10;99.90;;;;;;5136425;27;20575;-62
2022/08/30 00:40:51;;;;;;;4.13;3.33;;;14.00;99.90;;;;;;5117675;27;20457;-63
2022/08/30 00:43:23;;;;;;;6.30;3.97;;;13.90;99.90;;;;;;5115248;28;20503;-62
2022/08/30 00:45:50;;;;;;;6.57;4.03;;;14.10;99.90;;;;;;5116287;28;20047;-63
2022/08/30 00:48:18;;;;;;;4.43;3.42;;;13.90;99.90;;;;;;5114060;28;20135;-62
2022/08/30 00:50:50;;;;;;;7.32;4.38;;;13.90;99.90;;;;;;5115414;28;20119;-62
2022/08/30 00:53:21;;;;;;;7.10;3.88;;;13.90;99.90;;;;;;5115841;28;20219;-63
2022/08/30 00:55:49;;;;;;;5.40;3.22;;;13.90;99.90;;;;;;5115391;28;20430;-63
2022/08/30 00:58:20;;;;;;;4.97;4.18;;;13.90;99.90;;;;;;5114400;28;20051;-63
2022/08/30 01:00:49;;;;;;;5.55;4.30;;;13.80;99.90;;;;;;5115869;28;20055;-63
2022/08/30 01:03:17;;;;;;;6.22;3.85;;;13.80;99.90;;;;;;5115132;28;20104;-62
2022/08/30 01:05:45;;;;;;;6.60;4.63;;;13.80;99.90;;;;;;5114535;28;20051;-62
2022/08/30 01:08:14;;;;;;;5.55;4.30;;;13.80;99.90;;;;;;5115031;27;20527;-63
2022/08/30 01:10:42;;;;;;;6.90;3.75;;;13.80;99.90;;;;;;5134094;27;20075;-62
2022/08/30 01:13:12;;;;;;;8.07;4.70;;;13.80;99.90;;;;;;5134699;27;20134;-62
2022/08/30 01:15:39;;;;;;;5.33;3.70;;;13.80;99.90;;;;;;5136439;27;20043;-62
2022/08/30 01:18:10;;;;;;;7.35;4.47;;;13.80;99.90;;;;;;5134107;27;20368;-63
2022/08/30 01:20:44;;;;;;;9.90;4.75;;;13.80;99.90;;;;;;5118713;27;20052;-63
2022/08/30 01:23:15;;;;;;;8.73;3.53;;;13.80;99.90;;;;;;5115070;28;20047;-63
2022/08/30 01:25:43;;;;;;;;;;;13.80;99.90;;;;;;5115334;28;20123;-63
2022/08/30 01:28:13;;;;;;;6.85;3.65;;;13.90;99.90;;;;;;5128778;27;20403;-63
2022/08/30 01:30:41;;;;;;;4.90;3.20;;;14.00;99.90;;;;;;5113532;28;20629;-63
2022/08/30 01:33:10;;;;;;;10.02;4.00;;;13.90;99.90;;;;;;5115141;28;20104;-63
2022/08/30 01:35:44;;;;;;;5.75;3.33;;;14.00;99.90;;;;;;5114312;28;20096;-63
2022/08/30 01:38:13;;;;;;;7.78;3.30;;;14.00;99.90;;;;;;5113589;27;20060;-62
2022/08/30 01:40:40;;;;;;;7.53;3.83;;;14.00;99.90;;;;;;5135647;27;20495;-63
2022/08/30 01:43:08;;;;;;;4.13;3.08;;;14.10;99.90;;;;;;5134573;27;20051;-62
2022/08/30 01:45:35;;;;;;;5.80;3.25;;;14.10;99.90;;;;;;5122624;27;20048;-63
2022/08/30 01:48:02;;;;;;;9.63;3.47;;;14.20;99.90;;;;;;5114754;28;20123;-63
2022/08/30 01:50:29;;;;;;;5.88;3.28;;;14.30;99.90;;;;;;5113785;28;20466;-62
2022/08/30 01:52:56;;;;;;;4.28;2.90;;;14.30;99.90;;;;;;5114369;28;20491;-63
2022/08/30 01:55:24;;;;;;;5.15;3.33;;;14.30;99.90;;;;;;5114858;28;20040;-62
2022/08/30 01:57:51;;;;;;;6.72;2.70;;;14.30;99.90;;;;;;5114841;28;20188;-62
2022/08/30 02:00:19;;;;;;;7.40;3.47;;;14.30;99.90;;;;;;5124969;27;20059;-63
2022/08/30 02:02:46;;;;;;;6.25;3.53;;;14.40;99.90;;;;;;5135337;27;20043;-63
2022/08/30 02:05:13;;;;;;;5.35;2.67;;;14.40;99.90;;;;;;5133985;27;20126;-63
2022/08/30 02:07:39;;;;;;;6.47;3.22;;;14.40;99.90;;;;;;5133053;27;20051;-63
2022/08/30 02:10:07;;;;;;;6.18;3.08;;;14.50;99.90;;;;;;5133228;27;20051;-61
2022/08/30 02:12:35;;;;;;;6.65;2.92;;;14.50;99.90;;;;;;5135938;27;20097;-62
2022/08/30 02:15:02;;;;;;;5.32;3.13;;;14.50;99.90;;;;;;5136828;27;20050;-62
2022/08/30 02:17:29;;;;;;;7.57;3.20;;;14.50;99.90;;;;;;5155673;27;20092;-61
2022/08/30 02:19:56;;;;;;;10.02;3.22;;;14.50;99.90;;;;;;5136920;27;20061;-62
2022/08/30 02:22:22;;;;;;;3.83;3.05;;;14.50;99.90;;;;;;5155580;27;20495;-63
2022/08/30 02:24:49;;;;;;;3.97;2.90;;;14.60;99.90;;;;;;5139210;27;20051;-63
2022/08/30 02:27:16;;;;;;;5.03;3.25;;;14.50;99.90;;;;;;5115713;27;20055;-63
2022/08/30 02:29:44;;;;;;;5.68;3.10;;;14.50;99.90;;;;;;5134510;27;20551;-62
2022/08/30 02:32:11;;;;;;;6.22;3.55;;;14.50;99.90;;;;;;5134875;27;20087;-62
2022/08/30 02:34:38;;;;;;;8.23;3.72;;;14.60;99.90;;;;;;5115241;28;20050;-62
2022/08/30 02:37:05;;;;;;;6.13;3.28;;;14.50;99.90;;;;;;5134298;27;20055;-62
2022/08/30 02:39:32;;;;;;;8.15;3.38;;;14.50;99.90;;;;;;5129660;27;20046;-63
2022/08/30 02:41:59;;;;;;;5.45;3.50;;;14.40;99.90;;;;;;5136136;27;20050;-62
2022/08/30 02:44:25;;;;;;;5.25;3.05;;;14.40;99.90;;;;;;5136359;27;20091;-63
2022/08/30 02:46:54;;;;;;;5.72;2.90;;;14.40;99.90;;;;;;5155407;27;20055;-63
2022/08/30 02:49:20;;;;;;;7.65;3.38;;;14.30;99.90;;;;;;5135730;27;20107;-63
2022/08/30 02:51:47;;;;;;;6.40;3.05;;;14.40;99.90;;;;;;5136797;27;20620;-63
2022/08/30 02:54:18;;;;;;;5.18;3.03;;;14.40;99.90;;;;;;5122680;27;20080;-63
2022/08/30 02:56:45;;;;;;;5.47;3.17;;;14.40;99.90;;;;;;5115462;28;20394;-63
2022/08/30 02:59:12;;;;;;;7.07;3.33;;;14.40;99.90;;;;;;5116217;27;20383;-63
2022/08/30 03:01:39;;;;;;;7.25;3.30;;;14.40;99.90;;;;;;5134082;27;20051;-62
2022/08/30 03:04:08;;;;;;;6.72;3.00;;;14.40;99.90;;;;;;5149911;27;20455;-63
2022/08/30 03:06:35;;;;;;;5.93;3.30;;;14.40;99.90;;;;;;5155149;27;20047;-63
2022/08/30 03:09:03;;;;;;;4.40;3.15;;;14.40;99.90;;;;;;5144565;27;20099;-63
2022/08/30 03:11:31;;;;;;;5.20;3.40;;;14.40;99.90;;;;;;5115406;27;20510;-62
2022/08/30 03:13:58;;;;;;;5.72;3.30;;;14.40;99.90;;;;;;5133687;27;20095;-63
2022/08/30 03:16:25;;;;;;;4.82;3.10;;;14.40;99.90;;;;;;5133694;27;20054;-62
2022/08/30 03:18:51;;;;;;;5.43;3.58;;;14.40;99.90;;;;;;5115580;28;20059;-62
2022/08/30 03:21:19;;;;;;;5.22;3.45;;;14.30;99.90;;;;;;5115548;27;20108;-63
2022/08/30 03:23:46;;;;;;;6.03;3.10;;;14.30;99.90;;;;;;5142935;27;20078;-62
2022/08/30 03:26:13;;;;;;;7.03;3.20;;;14.30;99.90;;;;;;5154456;27;20047;-63
2022/08/30 03:28:42;;;;;;;8.85;4.13;;;14.30;99.90;;;;;;5154585;27;20482;-63
2022/08/30 03:31:09;;;;;;;5.60;3.55;;;14.20;99.90;;;;;;5152720;27;20528;-63
2022/08/30 03:33:38;;;;;;;5.40;3.15;;;14.20;99.90;;;;;;5115226;28;20055;-63
2022/08/30 03:36:05;;;;;;;6.75;2.58;;;14.10;99.90;;;;;;5139865;27;20046;-62
2022/08/30 03:38:34;;;;;;;4.85;2.90;;;14.30;99.90;;;;;;5132237;27;20050;-62
2022/08/30 03:41:00;;;;;;;3.13;2.45;;;14.70;99.90;;;;;;5149110;27;20531;-62
2022/08/30 03:43:27;;;;;;;4.45;3.17;;;14.90;99.90;;;;;;5126584;27;20100;-62
2022/08/30 03:45:54;;;;;;;5.75;3.40;;;15.20;99.90;;;;;;5150193;27;20063;-62
2022/08/30 03:48:21;;;;;;;14.35;3.75;;;15.40;99.90;;;;;;5148348;27;20083;-62
2022/08/30 03:50:48;;;;;;;5.25;3.75;;;15.40;99.90;;;;;;5131776;27;20576;-62
2022/08/30 03:53:14;;;;;;;9.93;3.65;;;15.30;99.90;;;;;;5151494;27;20750;-63
2022/08/30 03:55:43;;;;;;;6.38;3.80;;;15.20;99.90;;;;;;5138168;27;20039;-63
2022/08/30 03:58:09;;;;;;;6.45;3.78;;;15.20;99.90;;;;;;5127360;27;20054;-62
2022/08/30 04:00:36;;;;;;;7.10;3.95;;;15.20;99.90;;;;;;5155397;27;20485;-63
2022/08/30 04:03:03;;;;;;;12.88;4.60;;;15.40;99.90;;;;;;5147867;27;20091;-63
2022/08/30 04:05:30;;;;;;;8.35;4.35;;;15.60;99.90;;;;;;5128268;27;20118;-62
2022/08/30 04:07:57;;;;;;;7.18;4.30;;;15.50;99.90;;;;;;5130426;27;20104;-63
2022/08/30 04:10:25;;;;;;;7.45;4.07;;;15.60;99.90;;;;;;5150702;27;20054;-64
2022/08/30 04:12:53;;;;;;;5.20;3.90;;;15.60;99.90;;;;;;5132951;27;20542;-63
2022/08/30 04:15:20;;;;;;;11.73;4.38;;;15.70;99.90;;;;;;5145788;27;20392;-63
2022/08/30 04:17:48;;;;;;;8.75;4.65;;;15.70;99.90;;;;;;5149430;27;20074;-62
2022/08/30 04:20:16;;;;;;;9.18;4.72;;;15.80;99.90;;;;;;5146049;27;20044;-62
2022/08/30 04:22:43;;;;;;;7.65;4.00;;;15.80;99.90;;;;;;5132083;27;20047;-62
2022/08/30 04:25:11;;;;;;;5.25;3.90;;;15.90;99.90;;;;;;5151174;27;20039;-62
2022/08/30 04:27:37;;;;;;;7.13;4.88;;;16.00;99.90;;;;;;5146559;27;20084;-63
2022/08/30 04:30:07;;;;;;;7.88;3.75;;;15.90;99.90;;;;;;5148961;27;20043;-63
2022/08/30 04:32:34;;;;;;;7.88;4.03;;;15.90;99.90;;;;;;5144981;27;20042;-63
2022/08/30 04:35:01;;;;;;;7.72;3.70;;;16.00;99.90;;;;;;5145201;27;20047;-62
2022/08/30 04:37:28;;;;;;;12.35;4.57;;;16.00;99.90;;;;;;5132231;27;20047;-63
2022/08/30 04:39:56;;;;;;;7.63;3.70;;;15.70;99.90;;;;;;5126469;27;20451;-62
2022/08/30 04:42:23;;;;;;;7.45;3.45;;;15.60;99.90;;;;;;5123708;27;20082;-62
2022/08/30 04:44:50;;;;;;;5.78;3.58;;;15.70;99.90;;;;;;5128895;27;20089;-62
2022/08/30 04:47:18;;;;;;;6.60;3.00;;;15.70;99.90;;;;;;5149270;27;20035;-62
2022/08/30 04:49:45;;;;;;;8.80;3.45;;;15.80;99.90;;;;;;5144253;27;20615;-63
2022/08/30 04:52:12;;;;;;;6.95;3.13;;;15.70;99.90;;;;;;5153171;27;20057;-62
2022/08/30 04:54:39;;;;;;;6.68;3.55;;;15.60;99.90;;;;;;5129302;27;20507;-61
2022/08/30 04:57:07;;;;;;;4.80;3.03;;;15.60;99.90;;;;;;5129173;27;20055;-62
2022/08/30 04:59:34;;;;;;;6.53;2.97;;;15.50;99.90;;;;;;5147125;27;20039;-63
2022/08/30 05:02:01;;;;;;;7.88;2.92;;;15.60;99.90;;;;;;5147450;27;20047;-63
2022/08/30 05:04:29;;;;;;;6.28;2.78;;;15.60;99.90;;;;;;5131178;27;20383;-62
2022/08/30 05:06:56;;;;;;;7.25;2.88;;;15.70;99.90;;;;;;5142186;27;20093;-62
2022/08/30 05:09:23;;;;;;;4.78;2.63;;;15.60;99.90;;;;;;5125752;27;20050;-61
2022/08/30 05:11:49;;;;;;;5.90;3.08;;;15.50;99.90;;;;;;5150109;27;20054;-62
2022/08/30 05:14:16;;;;;;;4.43;2.55;;;15.50;99.90;;;;;;5126165;27;20046;-62
2022/08/30 05:16:44;;;;;;;5.85;2.55;;;15.60;99.90;;;;;;5129665;27;20388;-62
2022/08/30 05:19:11;;;;;;;6.20;2.60;;;15.60;99.90;;;;;;5129126;27;20530;-63
2022/08/30 05:21:40;;;;;;;8.95;3.00;;;15.60;99.90;;;;;;5145101;27;20099;-62
2022/08/30 05:24:07;;;;;;;4.85;2.60;;;15.70;99.90;;;;;;5132036;27;20058;-62
2022/08/30 05:26:37;;;;;;;4.35;3.08;;;15.70;99.90;;;;;;5145296;27;20078;-62
2022/08/30 05:29:03;;;;;;;6.10;2.85;;;15.80;99.90;;;;;;5149717;27;20085;-62
2022/08/30 05:31:33;;;;;;;4.80;2.30;;;15.90;99.90;;;;;;5131892;27;20074;-64
2022/08/30 05:34:00;;;;;;;6.17;2.33;;;16.10;99.90;;;;;;5145277;27;20079;-62
2022/08/30 05:36:30;;;;;;;4.07;2.35;;;16.10;99.90;;;;;;5141609;27;20096;-62
2022/08/30 05:38:59;;;;;;;3.72;2.22;;;16.00;99.90;;;;;;5147688;27;20043;-63
2022/08/30 05:41:27;;;;;;;3.88;2.67;;;16.10;99.90;;;;;;5148862;27;20051;-61
2022/08/30 05:43:54;;;;;;;4.57;2.53;;;16.20;99.90;;;;;;5126532;27;20057;-62
2022/08/30 05:46:21;;;;;;;7.97;2.42;;;16.20;99.90;;;;;;5144031;27;20070;-62
2022/08/30 05:48:49;;;;;;;4.38;2.20;;;16.30;99.90;;;;;;5130009;27;20418;-62
2022/08/30 05:51:18;;;;;;;5.95;2.40;;;16.50;99.90;;;;;;5149263;27;20066;-62
2022/08/30 05:53:47;;;;;;;6.35;2.47;;;16.40;99.90;;;;;;5145628;27;20039;-62
2022/08/30 05:56:17;;;;;;;6.22;2.38;;;16.50;99.90;;;;;;5143957;27;20096;-63
2022/08/30 05:58:44;;;;;;;5.30;1.77;;;16.40;99.90;;;;;;5126821;27;20039;-63
2022/08/30 06:01:20;;;;;;;5.05;2.85;;;16.60;99.90;;;;;;5143882;27;20055;-63
2022/08/30 06:03:47;;;;;;;5.38;2.72;;;16.50;99.90;;;;;;5117722;27;20108;-62
2022/08/30 06:06:14;;;;;;;5.60;3.40;;;16.30;99.90;;;;;;5137724;27;20476;-62
2022/08/30 06:08:44;;;;;;;7.05;3.03;;;16.10;99.90;;;;;;5118605;27;20039;-63
2022/08/30 06:11:11;;;;;;;5.60;3.10;;;16.00;99.90;;;;;;5139445;27;20053;-63
2022/08/30 06:13:39;;;;;;;6.93;3.05;;;16.00;99.90;;;;;;5116336;27;20115;-62
2022/08/30 06:16:06;;;;;;;6.10;3.25;;;15.90;99.90;;;;;;5116679;27;20086;-63
2022/08/30 06:18:33;;;;;;;4.43;2.63;;;15.90;99.90;;;;;;5135048;27;20043;-62
2022/08/30 06:21:00;;;;;;;5.68;2.63;;;16.00;99.90;;;;;;5136598;27;20121;-62
2022/08/30 06:23:27;;;;;;;7.95;3.35;;;16.40;99.90;;;;;;5136753;27;20406;-63
2022/08/30 06:25:54;;;;;;;4.80;2.80;;;17.30;99.90;;;;;;5134214;27;20165;-63
2022/08/30 06:28:21;;;;;;;7.43;2.50;;;18.20;99.90;;;;;;5116423;27;20043;-63
2022/08/30 06:30:50;;;;;;;4.45;2.20;;;19.10;99.90;;;;;;5116749;27;20055;-62
2022/08/30 06:33:17;;;;;;;4.45;2.50;;;19.90;99.90;;;;;;5115676;27;20536;-63
2022/08/30 06:35:43;;;;;;;4.20;2.40;;;20.60;99.90;;;;;;5134272;27;20092;-62
2022/08/30 06:38:10;;;;;;;6.22;3.00;;;21.10;99.90;;;;;;5134289;27;20482;-63
2022/08/30 06:40:37;;;;;;;5.88;3.03;;;21.60;99.90;;;;;;5116446;27;20043;-63
2022/08/30 06:43:04;;;;;;;4.40;2.10;;;22.10;99.90;;;;;;5135418;27;20566;-63
2022/08/30 06:45:31;;;;;;;5.70;2.50;;;22.70;99.90;;;;;;5138171;27;20043;-64
2022/08/30 06:47:59;;;;;;;5.65;2.40;;;23.00;99.90;;;;;;5145336;27;20103;-63
2022/08/30 06:50:26;;;;;;;5.85;2.28;;;23.50;99.90;;;;;;5123311;27;20055;-62
2022/08/30 06:52:54;;;;;;;3.50;1.75;;;23.90;99.90;;;;;;5134304;27;20047;-62
2022/08/30 06:55:21;;;;;;;5.40;2.50;;;24.10;99.80;;;;;;5151695;27;20047;-63
2022/08/30 06:57:48;;;;;;;4.00;1.65;;;24.20;98.30;;;;;;5140500;27;20039;-63
2022/08/30 07:00:16;;;;;;;3.55;1.50;;;24.70;97.80;;;;;;5117024;27;20082;-63
2022/08/30 07:02:43;;;;;;;5.30;1.50;;;25.20;96.50;;;;;;5132431;27;20498;-64
2022/08/30 07:05:12;;;;;;;3.08;1.10;;;25.40;95.90;;;;;;5135037;27;20051;-62
2022/08/30 07:07:41;;;;;;;5.28;1.45;;;25.70;94.50;;;;;;5154517;27;20039;-63
2022/08/30 07:10:09;;;;;;;4.13;1.50;;;26.00;93.00;;;;;;5135185;27;20126;-62
2022/08/30 07:12:36;;;;;;;3.65;1.27;;;25.60;91.70;;;;;;5135915;27;20081;-63
2022/08/30 07:15:05;;;;;;;2.50;1.30;;;25.90;91.80;;;;;;5130536;27;20478;-64
2022/08/30 07:20:20;;;;;;;4.13;1.20;;;27.00;91.20;;;;;;5133576;27;20039;-63
2022/08/30 07:22:47;;;;;;;2.17;1.10;;;27.00;89.60;;;;;;5133645;27;20404;-63
2022/08/30 07:25:15;;;;;;;4.57;1.38;;;27.10;89.10;;;;;;5115377;28;20055;-63
2022/08/30 07:27:42;;;;;;;2.65;1.10;;;27.30;88.30;;;;;;5133498;28;20043;-64
2022/08/30 07:30:10;;;;;;;2.00;1.10;;;27.60;87.30;;;;;;5114899;28;20478;-64
2022/08/30 07:32:37;;;;;;;5.53;1.20;;;27.90;86.40;;;;;;5133218;28;20074;-64
2022/08/30 07:35:05;;;;;;;3.97;1.23;;;28.10;85.30;;;;;;5133595;28;20410;-63
2022/08/30 07:37:33;;;;;;;4.03;1.30;;;28.40;84.70;;;;;;5133480;27;20047;-64
2022/08/30 07:40:00;;;;;;;3.97;1.35;;;28.60;83.70;;;;;;5115450;28;20090;-63
2022/08/30 07:42:27;;;;;;;7.13;1.20;;;28.40;82.60;;;;;;5133735;27;20399;-64
2022/08/30 07:44:54;;;;;;;2.83;1.38;;;28.30;81.20;;;;;;5132939;28;20051;-64
2022/08/30 07:47:20;;;;;;;3.65;0.90;;;28.40;80.90;;;;;;5133339;27;20075;-64
2022/08/30 07:49:47;;;;;;;3.03;1.40;;;28.20;79.80;;;;;;5114952;28;20058;-63
2022/08/30 07:52:14;;;;;;;2.63;1.20;;;28.20;79.90;;;;;;5132827;28;20456;-64
2022/08/30 07:54:42;;;;;;;3.15;1.30;;;27.80;79.20;;;;;;5115531;28;20446;-63
2022/08/30 07:57:09;;;;;;;4.45;1.05;;;28.40;79.20;;;;;;5134554;27;20050;-63
2022/08/30 07:59:36;;;;;;;2.35;1.02;;;28.40;79.10;;;;;;5115724;27;20104;-64
2022/08/30 08:02:03;;;;;;;5.43;1.45;;;29.10;78.50;;;;;;5154093;27;20103;-63
2022/08/30 08:04:30;;;;;;;5.35;1.40;;;29.30;77.70;;;;;;5153393;27;20130;-63
2022/08/30 08:06:57;;;;;;;5.05;1.00;;;29.20;76.50;;;;;;5153873;27;20465;-64
2022/08/30 08:09:24;;;;;;;4.15;1.20;;;29.40;75.30;;;;;;5154075;27;20414;-62
2022/08/30 08:11:52;;;;;;;3.58;1.17;;;29.40;76.40;;;;;;5127992;28;20039;-63
2022/08/30 08:14:20;;;;;;;3.65;0.80;;;29.60;75.80;;;;;;5143574;27;20455;-64
2022/08/30 08:16:47;;;;;;;5.95;1.63;;;29.80;74.90;;;;;;5117370;28;20050;-64
2022/08/30 08:19:14;;;;;;;2.50;0.90;;;29.30;74.80;;;;;;5150817;27;20455;-64
2022/08/30 08:21:41;;;;;;;3.13;1.10;;;29.30;75.20;;;;;;5138013;27;20070;-62
2022/08/30 08:24:08;;;;;;;1.80;0.80;;;29.40;74.70;;;;;;5115424;27;20055;-63
2022/08/30 08:26:36;;;;;;;2.53;1.15;;;29.40;73.60;;;;;;5145104;27;20096;-64
2022/08/30 08:29:07;;;;;;;2.88;0.90;;;30.10;73.50;;;;;;5132958;28;20098;-64
2022/08/30 08:31:34;;;;;;;2.83;1.10;;;30.50;71.30;;;;;;5137581;27;20086;-64
2022/08/30 08:34:04;;;;;;;1.58;0.80;;;30.90;72.10;;;;;;5143549;27;20451;-77
2022/08/30 08:36:31;;;;;;;;;;;30.80;71.40;;;;;;5137472;27;20391;-64
2022/08/30 08:38:59;;;;;;;2.78;0.95;;;29.90;69.40;;;;;;5119130;27;19919;-65
2022/08/30 08:41:40;;;;;;;3.70;1.13;;;30.10;71.90;;;;;;5133725;27;20051;-64
2022/08/30 08:44:15;;;;;;;2.25;1.08;;;30.10;70.40;;;;;;5157346;27;20043;-64
2022/08/30 08:46:51;;;;;;;2.97;1.08;;;29.50;71.20;;;;;;5156905;27;20042;-64
2022/08/30 08:49:18;;;;;;;3.67;1.10;;;29.80;70.80;;;;;;5138735;27;20054;-63
2022/08/30 08:54:36;;;;;;;2.45;0.90;;;30.80;70.20;;;;;;5143826;27;20047;-64
2022/08/30 08:57:03;;;;;;;2.50;1.00;;;30.50;68.00;;;;;;5118175;27;20078;-65
2022/08/30 08:59:31;;;;;;;2.72;1.00;;;30.60;69.20;;;;;;5137121;27;20101;-64
2022/08/30 09:02:01;;;;;;;3.50;0.93;;;31.00;69.10;;;;;;5135625;27;20104;-64
2022/08/30 09:04:35;;;;;;;1.98;0.95;;;31.30;69.00;;;;;;5137246;27;20043;-65
2022/08/30 09:07:05;;;;;;;3.08;1.10;;;31.20;67.60;;;;;;5136139;27;20043;-64
2022/08/30 09:09:35;;;;;;;3.95;1.00;;;31.40;67.40;;;;;;5116947;27;20086;-65
2022/08/30 09:12:02;;;;;;;1.98;1.02;;;31.60;67.20;;;;;;5118057;27;20100;-64
2022/08/30 09:14:35;;;;;;;3.22;0.93;;;31.80;67.00;;;;;;5136316;27;20058;-64
2022/08/30 09:17:05;;;;;;;2.75;1.00;;;31.80;66.20;;;;;;5135319;27;20047;-64
2022/08/30 09:19:41;;;;;;;2.65;0.90;;;32.10;66.20;;;;;;5135765;27;20047;-65
2022/08/30 09:22:25;;;;;;;2.50;0.90;;;32.50;66.00;;;;;;5135694;27;20051;-65
2022/08/30 09:24:54;;;;;;;3.45;0.98;;;32.90;64.40;;;;;;5135556;27;20490;-65
2022/08/30 09:27:26;;;;;;;4.25;0.95;;;32.40;64.30;;;;;;5118416;27;20047;-64
2022/08/30 09:29:58;;;;;;;1.90;0.80;;;31.80;65.50;;;;;;5116622;27;20529;-64
2022/08/30 09:32:28;;;;;;;2.38;1.00;;;32.20;64.90;;;;;;5117396;27;20103;-65
2022/08/30 09:34:55;;;;;;;1.65;0.98;;;32.00;64.60;;;;;;5135798;27;20088;-64
2022/08/30 09:37:26;;;;;;;2.92;1.05;;;31.20;65.40;;;;;;5135005;27;20039;-64
2022/08/30 09:39:53;;;;;;;3.90;1.10;;;30.70;66.00;;;;;;5135610;27;20495;-63
2022/08/30 09:42:24;;;;;;;2.55;0.93;;;30.70;65.80;;;;;;5117603;27;20086;-64
2022/08/30 09:44:51;;;;;;;2.55;0.90;;;30.50;65.40;;;;;;5134524;27;20151;-64
2022/08/30 09:47:24;;;;;;;6.10;1.08;;;30.30;65.80;;;;;;5132420;27;20047;-65
2022/08/30 09:50:05;;;;;;;2.13;0.82;;;30.70;65.70;;;;;;5136900;27;20130;-65
2022/08/30 09:52:40;;;;;;;3.63;1.10;;;31.50;64.30;;;;;;5156102;27;20082;-64
2022/08/30 09:55:21;;;;;;;2.10;1.00;;;32.00;64.30;;;;;;5155922;27;20082;-65
2022/08/30 09:57:56;;;;;;;2.42;0.95;;;32.10;61.50;;;;;;5136882;27;20091;-65
2022/08/30 10:00:27;;;;;;;1.85;0.88;;;32.50;62.40;;;;;;5140916;27;20043;-64
2022/08/30 10:03:13;;;;;;;2.03;0.95;;;32.90;63.00;;;;;;5131793;27;20552;-64
2022/08/30 10:05:49;;;;;;;3.42;0.75;;;32.90;62.00;;;;;;5152846;27;20050;-64
2022/08/30 10:08:25;;;;;;;2.90;0.90;;;33.40;62.70;;;;;;5155708;27;20444;-64
2022/08/30 10:10:55;;;;;;;3.72;0.98;;;33.30;60.50;;;;;;5155324;27;20538;-65
2022/08/30 10:13:55;;;;;;;3.05;1.05;;;33.40;60.50;;;;;;5154214;27;20058;-65
2022/08/30 10:16:39;;;;;;;2.15;0.85;;;33.60;60.50;;;;;;5135847;27;20430;-65
2022/08/30 10:19:18;;;;;;;1.17;0.68;;;33.80;57.60;;;;;;5151106;27;20065;-65
2022/08/30 10:21:47;;;;;;;;;;;33.70;58.50;;;;;;5154609;27;20047;-65
2022/08/30 10:24:18;;;;;;;2.25;0.95;;;33.60;58.60;;;;;;5152534;27;20343;-65
2022/08/30 10:26:49;;;;;;;1.92;0.80;;;33.60;59.10;;;;;;5133330;27;20043;-65
2022/08/30 10:29:21;;;;;;;2.83;0.80;;;34.30;59.60;;;;;;5154324;27;20074;-65
2022/08/30 10:31:54;;;;;;;1.77;0.75;;;34.70;58.40;;;;;;5153712;27;20046;-65
2022/08/30 10:34:29;;;;;;;2.22;0.80;;;35.00;58.20;;;;;;5153171;27;20594;-66
2022/08/30 10:37:02;;;;;;;5.65;0.90;;;34.50;57.00;;;;;;5135259;27;20090;-66
2022/08/30 10:39:33;;;;;;;2.75;0.90;;;34.80;58.00;;;;;;5130480;27;20090;-65
2022/08/30 10:42:07;;;;;;;1.20;0.60;;;34.40;56.50;;;;;;5151510;27;20446;-65
2022/08/30 10:44:39;;;;;;;2.50;0.93;;;33.00;57.70;;;;;;5154221;27;20493;-64
2022/08/30 10:47:18;;;;;;;3.33;1.08;;;31.90;59.20;;;;;;5152568;27;20051;-64
2022/08/30 10:49:49;;;;;;;1.63;0.77;;;30.50;61.40;;;;;;5135895;27;20170;-65
2022/08/30 10:52:25;;;;;;;2.80;0.85;;;29.50;63.20;;;;;;5151144;27;20054;-65
2022/08/30 10:54:58;;;;;;;2.88;1.05;;;29.40;64.60;;;;;;5134471;27;20047;-64
2022/08/30 10:57:25;;;;;;;2.00;0.70;;;29.80;63.70;;;;;;5149281;27;20405;-66
2022/08/30 10:59:58;;;;;;;1.80;0.85;;;30.60;62.10;;;;;;5133525;27;20051;-65
2022/08/30 11:03:08;;;;;;;3.10;1.00;;;31.40;60.60;;;;;;5136647;27;20055;-64
2022/08/30 11:05:57;;;;;;;2.22;0.60;;;32.00;59.90;;;;;;5116246;27;20547;-65
2022/08/30 11:08:45;;;;;;;5.38;1.13;;;32.60;59.70;;;;;;5114942;27;20095;-65
2022/08/30 11:11:22;;;;;;;2.17;0.90;;;32.40;59.00;;;;;;5134086;27;20047;-65
2022/08/30 11:13:50;;;;;;;1.75;0.90;;;32.50;58.90;;;;;;5133849;27;20527;-65
2022/08/30 11:16:18;;;;;;;3.65;0.90;;;32.70;59.80;;;;;;5132939;27;20456;-65
2022/08/30 11:18:47;;;;;;;2.65;1.05;;;32.90;59.60;;;;;;5115809;27;20039;-64
2022/08/30 11:21:24;;;;;;;3.03;0.80;;;33.40;60.10;;;;;;5115368;28;20050;-65
2022/08/30 11:24:02;;;;;;;2.10;0.60;;;33.20;58.50;;;;;;5119723;27;20528;-65
2022/08/30 11:26:58;;;;;;;3.08;1.20;;;33.20;58.70;;;;;;5154363;27;20074;-65
2022/08/30 11:29:33;;;;;;;1.77;0.88;;;32.90;58.80;;;;;;5128587;27;20574;-65
2022/08/30 11:32:19;;;;;;;2.22;0.82;;;33.20;57.90;;;;;;5154379;27;20046;-65
2022/08/30 11:35:04;;;;;;;2.17;0.75;;;33.20;58.10;;;;;;5136057;27;20126;-65
2022/08/30 11:37:39;;;;;;;2.05;0.80;;;33.80;57.00;;;;;;5135349;27;20082;-65
2022/08/30 11:40:33;;;;;;;4.40;1.02;;;33.70;57.40;;;;;;5134757;27;20051;-65
2022/08/30 11:43:34;;;;;;;2.92;0.73;;;33.70;56.80;;;;;;5114357;28;20046;-65
2022/08/30 11:46:15;;;;;;;2.00;0.93;;;33.60;56.30;;;;;;5132562;28;20047;-65
2022/08/30 11:48:47;;;;;;;3.45;1.00;;;33.70;56.50;;;;;;5115116;28;20078;-65
2022/08/30 11:51:36;;;;;;;3.75;0.90;;;33.90;56.60;;;;;;5132684;27;20099;-65
2022/08/30 11:54:16;;;;;;;2.88;0.63;;;33.90;57.30;;;;;;5125069;27;20055;-66
2022/08/30 11:56:52;;;;;;;2.90;0.93;;;33.90;57.30;;;;;;5153556;27;20479;-65
2022/08/30 11:59:26;;;;;;;5.10;0.95;;;33.70;57.20;;;;;;5154106;27;20489;-65
2022/08/30 12:01:53;;;;;;;2.67;0.88;;;33.80;57.90;;;;;;5153938;27;20405;-66
2022/08/30 12:04:35;;;;;;;3.25;1.30;;;32.90;57.30;;;;;;5135020;27;20128;-64
2022/08/30 12:07:04;;;;;;;2.72;0.80;;;32.30;58.70;;;;;;5134610;27;20063;-64
2022/08/30 12:10:01;;;;;;;;;;;32.30;58.80;;;;;;5158492;27;20447;-64
2022/08/30 12:12:51;;;;;;;2.65;0.95;;;32.00;58.80;;;;;;5138861;27;19919;-65
2022/08/30 12:15:54;;;;;;;2.80;1.55;;;31.30;59.60;;;;;;5152051;27;20494;-65
2022/08/30 12:18:29;;;;;;;4.80;0.98;;;31.20;60.80;;;;;;5093495;27;20414;-64
2022/08/30 12:21:12;;;;;;;2.40;1.00;;;31.50;60.40;;;;;;5119792;27;20051;-64
2022/08/30 12:23:46;;;;;;;2.53;0.98;;;31.60;60.60;;;;;;5137291;27;20118;-64
2022/08/30 12:26:29;;;;;;;2.95;1.13;;;31.20;60.90;;;;;;5136493;27;20055;-65
2022/08/30 12:29:10;;;;;;;2.53;1.10;;;30.60;61.90;;;;;;5137012;27;20414;-65
2022/08/30 12:31:41;;;;;;;5.63;1.02;;;30.00;62.70;;;;;;5136843;27;20414;-64
2022/08/30 12:34:08;;;;;;;3.58;1.00;;;30.00;63.20;;;;;;5137569;27;20590;-64
2022/08/30 12:36:38;;;;;;;2.45;0.82;;;30.40;62.50;;;;;;5118640;27;20100;-63
2022/08/30 12:39:18;;;;;;;2.38;0.80;;;30.40;61.30;;;;;;5136465;27;20158;-63
2022/08/30 12:41:45;;;;;;;3.80;1.00;;;30.30;61.70;;;;;;5136445;27;20075;-64
2022/08/30 12:44:16;;;;;;;3.80;0.95;;;30.90;62.20;;;;;;5118606;27;20119;-65
2022/08/30 12:46:47;;;;;;;4.20;1.20;;;31.00;61.10;;;;;;5117526;27;20126;-64
2022/08/30 12:49:15;;;;;;;2.70;1.10;;;31.40;61.90;;;;;;5119229;27;20043;-65
2022/08/30 12:51:43;;;;;;;3.05;1.00;;;30.90;61.20;;;;;;5137300;27;20054;-64
2022/08/30 12:54:18;;;;;;;3.20;0.80;;;31.00;62.30;;;;;;5142616;27;20081;-64
2022/08/30 12:56:59;;;;;;;3.28;1.13;;;30.70;62.00;;;;;;5150495;27;20082;-64
2022/08/30 12:59:51;;;;;;;4.53;1.10;;;30.60;62.60;;;;;;5155759;27;20043;-64
2022/08/30 13:02:21;;;;;;;2.45;0.80;;;31.20;62.20;;;;;;5154887;27;20051;-63
2022/08/30 13:04:49;;;;;;;4.05;1.17;;;30.90;61.50;;;;;;5155624;27;20108;-63
2022/08/30 13:07:32;;;;;;;5.15;1.23;;;30.20;61.70;;;;;;5154721;27;20043;-65
2022/08/30 13:10:06;;;;;;;3.13;0.85;;;29.50;62.80;;;;;;5154472;27;20062;-63